Beverly Hills, Michigan
Current Conditions -  °F | °C
As of 6:15 AM on Monday 20 Oct 2014 (Local Time) from KVLL Reporting Station
Light Rain Light Rain  
Wind Chill: 43°   Ceiling: 4500
Heat Index: 47°   Visibility: 10mi
Dew Point: 43°   Wind: 9mph
Humidity: 86%   Direction: 210°SSW
Pressure: 29.88"   Gusts: NA
Location:  42.52°N, 83.23°W
Report Text: KVLL 201015Z AUTO 21008KT 10SM -RA OVC045 09/06 A2988 RMK AO2 T00850062
Loading
Personal Weather Stations






























Interactive Weather Map
Tropical Storm Tracking
New forecast layout! Learn more

10-Day Weather Forecast

Advertisements
Track Severe Weather on mobile